createdAt,value
2022-12-17T00:02:28.565Z,102191.91
2022-12-17T00:05:13.912Z,102190.78
2022-12-17T00:07:58.966Z,102199.53
2022-12-17T00:10:44.434Z,102187.69
2022-12-17T00:13:38.109Z,102209.31
2022-12-17T00:16:29.654Z,102200.53
2022-12-17T00:19:16.795Z,102203.56
2022-12-17T00:22:01.915Z,102202.78
2022-12-17T00:24:47.353Z,102208.59
2022-12-17T00:27:32.451Z,102210.50
2022-12-17T00:30:18.039Z,102212.00
2022-12-17T00:33:03.594Z,102214.59
2022-12-17T00:35:50.004Z,102218.41
2022-12-17T00:38:35.487Z,102217.84
2022-12-17T00:41:21.235Z,102221.78
2022-12-17T00:44:06.280Z,102215.72
2022-12-17T00:46:52.208Z,102218.31
2022-12-17T00:49:37.224Z,102216.63
2022-12-17T00:52:24.458Z,102225.91
2022-12-17T00:55:10.149Z,102229.78
2022-12-17T00:57:55.628Z,102230.06
2022-12-17T01:00:41.537Z,102231.16
2022-12-17T01:03:29.762Z,102232.31
2022-12-17T01:06:15.545Z,102231.44
2022-12-17T01:09:02.067Z,102239.50
2022-12-17T01:11:47.839Z,102239.84
2022-12-17T01:14:33.330Z,102235.88
2022-12-17T01:17:18.507Z,102241.16
2022-12-17T01:20:03.654Z,102239.28
2022-12-17T01:22:49.152Z,102231.63
2022-12-17T01:25:44.053Z,102241.59
2022-12-17T01:28:29.453Z,102240.38
2022-12-17T01:31:15.419Z,102239.19
2022-12-17T01:34:00.679Z,102233.72
2022-12-17T01:36:45.886Z,102236.59
2022-12-17T01:39:31.332Z,102243.09
2022-12-17T01:42:18.109Z,102241.97
2022-12-17T01:45:08.244Z,102249.25
2022-12-17T01:47:58.247Z,102251.84
2022-12-17T01:50:46.090Z,102256.88
2022-12-17T01:53:32.827Z,102264.13
2022-12-17T01:56:18.538Z,102262.25
2022-12-17T01:59:05.547Z,102259.88
2022-12-17T02:01:51.278Z,102256.00
2022-12-17T02:04:37.033Z,102261.81
2022-12-17T02:07:48.334Z,102259.47
2022-12-17T02:10:41.479Z,102262.47
2022-12-17T02:13:33.174Z,102262.84
2022-12-17T02:16:27.657Z,102270.19
2022-12-17T02:19:21.083Z,102273.84
2022-12-17T02:22:11.625Z,102269.69
2022-12-17T02:25:06.324Z,102269.06
2022-12-17T02:27:53.889Z,102266.81
2022-12-17T02:30:41.180Z,102263.28
2022-12-17T02:33:27.628Z,102270.19
2022-12-17T02:36:21.063Z,102269.06
2022-12-17T02:39:06.242Z,102267.50
2022-12-17T02:41:58.004Z,102284.97
2022-12-17T02:44:48.012Z,102279.09
2022-12-17T02:47:34.276Z,102279.97
2022-12-17T02:50:20.104Z,102272.09
2022-12-17T02:53:07.300Z,102284.13
2022-12-17T02:55:53.568Z,102277.25
2022-12-17T02:58:39.340Z,102283.19
2022-12-17T03:01:26.651Z,102275.25
2022-12-17T03:04:13.083Z,102282.63
2022-12-17T03:06:58.511Z,102289.81
2022-12-17T03:09:44.294Z,102280.13
2022-12-17T03:12:29.570Z,102286.91
2022-12-17T03:15:14.940Z,102292.81
2022-12-17T03:18:01.570Z,102300.72
2022-12-17T03:20:43.214Z,102306.28
2022-12-17T03:23:30.593Z,102301.94
2022-12-17T03:26:17.652Z,102305.13
2022-12-17T03:29:03.126Z,102305.25
2022-12-17T03:31:48.445Z,102300.97
2022-12-17T03:34:35.232Z,102306.00
2022-12-17T03:37:20.465Z,102295.19
2022-12-17T03:40:05.925Z,102304.19
2022-12-17T03:42:51.114Z,102291.94
2022-12-17T03:45:36.551Z,102299.22
2022-12-17T03:48:24.061Z,102295.38
2022-12-17T03:51:11.965Z,102298.78
2022-12-17T03:53:57.375Z,102308.47
2022-12-17T03:56:42.791Z,102300.13
2022-12-17T03:59:28.947Z,102303.44
2022-12-17T04:02:14.364Z,102296.44
2022-12-17T04:04:59.787Z,102299.25
2022-12-17T04:07:46.462Z,102304.75
2022-12-17T04:10:32.208Z,102310.44
2022-12-17T04:13:17.535Z,102307.69
2022-12-17T04:16:02.921Z,102304.31
2022-12-17T04:18:48.099Z,102304.31
2022-12-17T04:21:33.520Z,102308.25
2022-12-17T04:24:20.320Z,102309.34
2022-12-17T04:27:05.611Z,102306.78
2022-12-17T04:29:50.839Z,102314.25
2022-12-17T04:32:36.122Z,102321.38
2022-12-17T04:35:21.566Z,102334.63
2022-12-17T04:38:07.329Z,102342.88
2022-12-17T04:40:53.970Z,102351.13
2022-12-17T04:43:39.658Z,102345.31
2022-12-17T04:46:25.137Z,102351.56
2022-12-17T04:49:10.386Z,102359.38
2022-12-17T04:51:55.888Z,102360.13
2022-12-17T04:54:41.334Z,102358.59
2022-12-17T04:57:28.003Z,102355.22
2022-12-17T05:00:13.447Z,102352.31
2022-12-17T05:02:58.944Z,102351.19
2022-12-17T05:05:44.215Z,102351.75
2022-12-17T05:08:29.599Z,102365.63
2022-12-17T05:11:20.453Z,102371.09
2022-12-17T05:14:07.055Z,102359.22
2022-12-17T05:16:52.500Z,102371.66
2022-12-17T05:19:37.931Z,102365.94
2022-12-17T05:22:23.391Z,102369.84
2022-12-17T05:25:08.464Z,102366.38
2022-12-17T05:27:53.887Z,102364.06
2022-12-17T05:30:40.511Z,102361.16
2022-12-17T05:33:37.664Z,102365.28
2022-12-17T05:36:23.779Z,102375.69
2022-12-17T05:39:09.234Z,102362.72
2022-12-17T05:41:54.875Z,102366.75
2022-12-17T05:44:40.174Z,102365.97
2022-12-17T05:47:26.877Z,102354.72
2022-12-17T05:50:12.483Z,102364.88
2022-12-17T05:52:57.760Z,102358.84
2022-12-17T05:55:43.407Z,102355.13
2022-12-17T05:58:31.967Z,102367.88
2022-12-17T06:01:19.394Z,102362.41
2022-12-17T06:04:05.849Z,102376.19
2022-12-17T06:06:51.620Z,102375.94
2022-12-17T06:09:37.979Z,102373.25
2022-12-17T06:12:35.184Z,102376.06
2022-12-17T06:15:20.543Z,102373.50
2022-12-17T06:18:16.417Z,102371.06
2022-12-17T06:21:03.600Z,102382.00
2022-12-17T06:23:49.115Z,102379.44
2022-12-17T06:26:34.341Z,102362.59
2022-12-17T06:29:19.819Z,102364.06
2022-12-17T06:32:07.488Z,102365.41
2022-12-17T06:34:52.898Z,102370.41
2022-12-17T06:37:39.679Z,102371.53
2022-12-17T06:40:25.491Z,102377.22
2022-12-17T06:43:11.919Z,102380.22
2022-12-17T06:45:57.428Z,102386.81
2022-12-17T06:48:42.754Z,102391.84
2022-12-17T06:51:27.975Z,102395.75
2022-12-17T06:54:14.686Z,102393.06
2022-12-17T06:56:56.396Z,102387.94
2022-12-17T06:59:41.675Z,102397.75
2022-12-17T07:02:28.195Z,102398.56
2022-12-17T07:05:13.480Z,102405.59
2022-12-17T07:07:58.752Z,102411.47
2022-12-17T07:10:45.439Z,102416.06
2022-12-17T07:13:30.844Z,102414.69
2022-12-17T07:16:16.136Z,102429.78
2022-12-17T07:19:01.296Z,102432.81
2022-12-17T07:21:46.552Z,102424.41
2022-12-17T07:24:31.918Z,102426.31
2022-12-17T07:27:18.515Z,102431.47
2022-12-17T07:30:03.903Z,102446.00
2022-12-17T07:32:49.330Z,102433.91
2022-12-17T07:35:34.371Z,102443.09
2022-12-17T07:38:21.770Z,102447.31
2022-12-17T07:41:07.188Z,102443.41
2022-12-17T07:43:54.246Z,102455.59
2022-12-17T07:46:39.348Z,102457.13
2022-12-17T07:49:26.037Z,102461.63
2022-12-17T07:52:11.566Z,102468.66
2022-12-17T07:54:56.896Z,102464.97
2022-12-17T07:57:42.078Z,102467.75
2022-12-17T08:00:30.690Z,102458.34
2022-12-17T08:03:16.279Z,102472.34
2022-12-17T08:06:01.419Z,102469.84
2022-12-17T08:08:46.540Z,102472.88
2022-12-17T08:11:31.907Z,102472.19
2022-12-17T08:14:17.524Z,102485.28
2022-12-17T08:17:04.206Z,102488.50
2022-12-17T08:19:55.684Z,102505.59
2022-12-17T08:22:37.379Z,102515.44
2022-12-17T08:25:23.235Z,102498.56
2022-12-17T08:28:41.216Z,102515.53
2022-12-17T08:31:19.790Z,102500.34
2022-12-17T08:34:08.086Z,102506.16
2022-12-17T08:36:54.203Z,102504.38
2022-12-17T08:39:39.619Z,102513.41
2022-12-17T08:42:25.139Z,102512.28
2022-12-17T08:45:10.513Z,102507.94
2022-12-17T08:48:02.047Z,102512.19
2022-12-17T08:51:04.684Z,102517.19
2022-12-17T08:53:49.735Z,102523.09
2022-12-17T08:56:35.054Z,102519.22
2022-12-17T08:59:20.563Z,102515.66
2022-12-17T09:02:06.091Z,102515.44
2022-12-17T09:04:51.375Z,102505.28
2022-12-17T09:07:38.111Z,102514.53
2022-12-17T09:10:24.102Z,102519.31
2022-12-17T09:13:09.559Z,102519.13
2022-12-17T09:15:55.022Z,102513.41
2022-12-17T09:18:41.360Z,102528.25
2022-12-17T09:21:26.821Z,102524.03
2022-12-17T09:24:13.287Z,102525.91
2022-12-17T09:26:58.789Z,102526.38
2022-12-17T09:29:44.263Z,102535.31
2022-12-17T09:32:29.735Z,102546.72
2022-12-17T09:35:15.050Z,102559.66
2022-12-17T09:38:00.239Z,102554.41
2022-12-17T09:40:48.399Z,102556.06
2022-12-17T09:43:47.957Z,102563.75
2022-12-17T09:46:40.553Z,102556.75
2022-12-17T09:49:35.457Z,102557.97
2022-12-17T09:52:26.767Z,102555.41
2022-12-17T09:55:12.227Z,102555.16
2022-12-17T09:57:59.121Z,102556.06
2022-12-17T10:00:47.176Z,102567.91
2022-12-17T10:03:36.149Z,102566.13
2022-12-17T10:06:26.510Z,102562.75
2022-12-17T10:09:16.756Z,102564.88
2022-12-17T10:12:02.187Z,102558.53
2022-12-17T10:14:49.325Z,102552.94
2022-12-17T10:17:43.169Z,102557.22
2022-12-17T10:20:39.948Z,102552.84
2022-12-17T10:23:25.318Z,102550.94
2022-12-17T10:26:11.836Z,102548.25
2022-12-17T10:28:56.986Z,102549.69
2022-12-17T10:31:47.902Z,102548.13
2022-12-17T10:34:35.462Z,102552.81
2022-12-17T10:37:20.762Z,102554.63
2022-12-17T10:40:14.223Z,102557.75
2022-12-17T10:43:00.248Z,102557.19
2022-12-17T10:45:47.945Z,102567.25
2022-12-17T10:48:40.639Z,102573.63
2022-12-17T10:51:38.711Z,102572.38
2022-12-17T10:54:34.606Z,102573.34
2022-12-17T10:57:20.603Z,102588.25
2022-12-17T11:00:06.251Z,102571.69
2022-12-17T11:02:51.855Z,102572.78
2022-12-17T11:05:47.307Z,102565.66
2022-12-17T11:08:34.549Z,102567.78
2022-12-17T11:11:23.091Z,102569.56
2022-12-17T11:14:10.082Z,102579.75
2022-12-17T11:17:00.954Z,102583.97
2022-12-17T11:19:56.684Z,102582.19
2022-12-17T11:22:50.128Z,102582.97
2022-12-17T11:25:49.294Z,102585.63
2022-12-17T11:28:39.720Z,102564.72
2022-12-17T11:31:53.459Z,102562.78
2022-12-17T11:34:48.401Z,102564.53
2022-12-17T11:37:37.295Z,102564.75
2022-12-17T11:40:38.122Z,102567.81
2022-12-17T11:43:33.495Z,102567.47
2022-12-17T11:46:32.024Z,102575.06
2022-12-17T11:49:29.939Z,102583.00
2022-12-17T11:52:20.719Z,102593.81
2022-12-17T11:55:14.850Z,102577.72
2022-12-17T11:58:11.110Z,102580.81
2022-12-17T12:01:07.203Z,102582.97
2022-12-17T12:04:02.128Z,102585.19
2022-12-17T12:06:55.476Z,102585.31
2022-12-17T12:09:46.310Z,102580.03
2022-12-17T12:12:40.957Z,102572.53
2022-12-17T12:15:43.027Z,102567.63
2022-12-17T12:18:32.917Z,102576.13
2022-12-17T12:21:37.055Z,102575.19
2022-12-17T12:24:37.599Z,102578.97
2022-12-17T12:27:32.021Z,102571.72
2022-12-17T12:30:23.953Z,102574.88
2022-12-17T12:33:20.856Z,102570.38
2022-12-17T12:36:06.722Z,102580.22
2022-12-17T12:38:58.199Z,102567.84
2022-12-17T12:41:51.827Z,102575.97
2022-12-17T12:44:49.545Z,102566.91
2022-12-17T12:47:44.151Z,102566.16
2022-12-17T12:50:39.591Z,102569.50
2022-12-17T12:53:28.744Z,102564.56
2022-12-17T12:56:14.182Z,102571.97
2022-12-17T12:58:59.461Z,102558.63
2022-12-17T13:01:53.137Z,102559.41
2022-12-17T13:04:51.983Z,102571.16
2022-12-17T13:07:29.053Z,102555.19
2022-12-17T13:09:58.874Z,102557.09
2022-12-17T13:12:33.642Z,102554.63
2022-12-17T13:15:22.353Z,102556.06
2022-12-17T13:18:00.545Z,102559.88
2022-12-17T13:20:31.403Z,102561.22
2022-12-17T13:23:16.187Z,102559.34
2022-12-17T13:25:44.206Z,102555.19
2022-12-17T13:28:30.681Z,102559.75
2022-12-17T13:31:04.610Z,102554.75
2022-12-17T13:33:40.367Z,102563.13
2022-12-17T13:36:18.010Z,102556.31
2022-12-17T13:38:55.742Z,102547.25
2022-12-17T13:41:29.922Z,102559.31
2022-12-17T13:44:00.417Z,102557.31
2022-12-17T13:46:30.431Z,102562.91
2022-12-17T13:49:00.164Z,102557.22
2022-12-17T13:51:30.104Z,102556.84
2022-12-17T13:54:02.177Z,102555.84
2022-12-17T13:56:32.747Z,102554.72
2022-12-17T13:59:07.948Z,102545.81
2022-12-17T14:01:46.209Z,102549.81
2022-12-17T14:04:22.572Z,102552.81
2022-12-17T14:06:52.785Z,102554.25
2022-12-17T14:09:23.985Z,102554.94
2022-12-17T14:12:10.087Z,102551.13
2022-12-17T14:14:40.973Z,102552.69
2022-12-17T14:17:18.401Z,102553.56
2022-12-17T14:19:46.587Z,102549.13
2022-12-17T14:22:20.453Z,102551.78
2022-12-17T14:24:49.823Z,102553.56
2022-12-17T14:27:25.823Z,102560.28
2022-12-17T14:29:53.842Z,102569.00
2022-12-17T14:32:27.282Z,102578.03
2022-12-17T14:35:00.418Z,102575.91
2022-12-17T14:37:29.287Z,102577.84
2022-12-17T14:40:03.795Z,102579.06
2022-12-17T14:42:36.056Z,102580.28
2022-12-17T14:45:07.718Z,102575.84
2022-12-17T14:47:36.672Z,102578.19
2022-12-17T14:50:08.702Z,102588.88
2022-12-17T14:52:44.944Z,102589.78
2022-12-17T14:55:32.273Z,102588.16
2022-12-17T14:58:25.215Z,102575.19
2022-12-17T15:00:56.835Z,102581.75
2022-12-17T15:03:27.540Z,102590.13
2022-12-17T15:05:59.251Z,102589.88
2022-12-17T15:08:27.192Z,102586.16
2022-12-17T15:10:56.271Z,102579.44
2022-12-17T15:13:23.992Z,102575.53
2022-12-17T15:15:51.720Z,102585.56
2022-12-17T15:18:19.533Z,102588.13
2022-12-17T15:20:47.583Z,102590.66
2022-12-17T15:23:17.797Z,102595.25
2022-12-17T15:25:47.224Z,102613.66
2022-12-17T15:28:16.753Z,102601.38
2022-12-17T15:30:44.688Z,102604.75
2022-12-17T15:33:13.367Z,102611.94
2022-12-17T15:35:41.775Z,102611.59
2022-12-17T15:38:12.826Z,102620.31
2022-12-17T15:40:41.171Z,102623.84
2022-12-17T15:43:12.835Z,102620.31
2022-12-17T15:45:43.709Z,102629.25
2022-12-17T15:48:12.299Z,102631.31
2022-12-17T15:50:40.588Z,102629.00
2022-12-17T15:53:09.302Z,102634.94
2022-12-17T15:55:37.704Z,102636.63
2022-12-17T15:58:05.834Z,102637.94
2022-12-17T16:00:34.168Z,102634.53
2022-12-17T16:03:03.368Z,102632.31
2022-12-17T16:05:31.223Z,102635.84
2022-12-17T16:08:02.172Z,102631.25
2022-12-17T16:10:30.474Z,102632.22
2022-12-17T16:12:58.681Z,102637.78
2022-12-17T16:15:26.526Z,102641.38
2022-12-17T16:17:54.317Z,102644.19
2022-12-17T16:20:24.127Z,102653.28
2022-12-17T16:22:51.925Z,102651.97
2022-12-17T16:25:19.927Z,102645.06
2022-12-17T16:27:47.739Z,102644.78
2022-12-17T16:30:15.639Z,102650.47
2022-12-17T16:32:43.375Z,102654.16
2022-12-17T16:35:11.324Z,102643.63
2022-12-17T16:37:40.527Z,102647.72
2022-12-17T16:40:09.640Z,102641.13
2022-12-17T16:42:37.405Z,102652.63
2022-12-17T16:45:06.003Z,102662.19
2022-12-17T16:47:33.752Z,102651.97
2022-12-17T16:50:01.488Z,102659.25
2022-12-17T16:52:29.262Z,102660.69
2022-12-17T16:54:58.380Z,102660.84
2022-12-17T16:57:26.217Z,102658.22
2022-12-17T16:59:53.935Z,102657.63
2022-12-17T17:02:21.841Z,102656.97
2022-12-17T17:04:49.761Z,102654.94
2022-12-17T17:07:17.520Z,102651.84
2022-12-17T17:09:45.261Z,102654.69
2022-12-17T17:12:14.387Z,102660.19
2022-12-17T17:14:44.202Z,102661.50
2022-12-17T17:17:12.094Z,102653.47
2022-12-17T17:19:39.893Z,102661.97
2022-12-17T17:22:07.612Z,102671.53
2022-12-17T17:24:35.381Z,102668.59
2022-12-17T17:27:03.187Z,102668.13
2022-12-17T17:29:32.320Z,102673.44
2022-12-17T17:32:15.313Z,102659.41
2022-12-17T17:34:43.282Z,102664.97
2022-12-17T17:37:11.536Z,102670.69
2022-12-17T17:39:39.283Z,102659.16
2022-12-17T17:42:07.429Z,102659.81
2022-12-17T17:44:37.232Z,102651.50
2022-12-17T17:47:05.336Z,102665.00
2022-12-17T17:49:33.180Z,102658.13
2022-12-17T17:52:09.916Z,102661.53
2022-12-17T17:54:39.399Z,102669.53
2022-12-17T17:57:07.357Z,102676.25
2022-12-17T17:59:36.517Z,102675.00
2022-12-17T18:02:04.735Z,102676.75
2022-12-17T18:04:33.099Z,102680.22
2022-12-17T18:09:48.629Z,102677.41
2022-12-17T18:12:33.634Z,102676.31
2022-12-17T18:15:14.184Z,102678.53
2022-12-17T18:17:42.558Z,102685.75
2022-12-17T18:20:11.711Z,102680.72
2022-12-17T18:22:39.452Z,102689.25
2022-12-17T18:25:07.462Z,102706.06
2022-12-17T18:27:35.324Z,102696.50
2022-12-17T18:30:04.651Z,102705.94
2022-12-17T18:32:32.372Z,102714.75
2022-12-17T18:35:00.219Z,102698.59
2022-12-17T18:37:28.089Z,102692.75
2022-12-17T18:39:55.920Z,102687.34
2022-12-17T18:42:41.408Z,102682.47
2022-12-17T18:45:10.775Z,102676.66
2022-12-17T18:47:38.566Z,102681.69
2022-12-17T18:50:07.385Z,102692.50
2022-12-17T18:52:35.118Z,102695.84
2022-12-17T18:55:03.031Z,102687.72
2022-12-17T18:57:30.789Z,102686.94
2022-12-17T18:59:58.535Z,102686.97
2022-12-17T19:02:27.788Z,102696.28
2022-12-17T19:04:55.583Z,102689.53
2022-12-17T19:07:23.358Z,102705.72
2022-12-17T19:09:51.125Z,102706.19
2022-12-17T19:12:19.606Z,102717.03
2022-12-17T19:14:47.443Z,102710.44
2022-12-17T19:17:15.241Z,102716.72
2022-12-17T19:19:44.320Z,102709.66
2022-12-17T19:22:12.087Z,102712.44
2022-12-17T19:24:39.815Z,102713.69
2022-12-17T19:27:07.622Z,102711.03
2022-12-17T19:29:35.411Z,102703.19
2022-12-17T19:32:03.385Z,102702.28
2022-12-17T19:34:32.357Z,102711.53
2022-12-17T19:37:01.572Z,102713.09
2022-12-17T19:39:29.399Z,102713.28
2022-12-17T19:41:57.215Z,102717.66
2022-12-17T19:44:25.157Z,102717.19
2022-12-17T19:46:52.909Z,102728.38
2022-12-17T19:49:20.667Z,102723.78
2022-12-17T19:51:48.518Z,102730.72
2022-12-17T19:54:17.655Z,102725.72
2022-12-17T19:56:46.223Z,102728.84
2022-12-17T19:59:14.704Z,102728.88
2022-12-17T20:01:44.877Z,102737.03
2022-12-17T20:04:14.008Z,102737.66
2022-12-17T20:06:42.956Z,102738.13
2022-12-17T20:09:11.376Z,102744.72
2022-12-17T20:11:40.907Z,102743.78
2022-12-17T20:14:12.481Z,102745.47
2022-12-17T20:16:42.120Z,102750.50
2022-12-17T20:19:12.998Z,102753.16
2022-12-17T20:21:41.378Z,102749.72
2022-12-17T20:24:10.798Z,102752.56
2022-12-17T20:26:40.333Z,102753.97
2022-12-17T20:29:08.513Z,102758.69
2022-12-17T20:31:37.065Z,102759.31
2022-12-17T20:34:06.186Z,102757.56
2022-12-17T20:36:34.588Z,102759.31
2022-12-17T20:39:02.448Z,102747.88
2022-12-17T20:41:32.641Z,102747.72
2022-12-17T20:44:06.351Z,102753.03
2022-12-17T20:46:36.703Z,102745.81
2022-12-17T20:49:05.974Z,102751.75
2022-12-17T20:51:34.111Z,102745.50
2022-12-17T20:54:03.352Z,102743.13
2022-12-17T20:56:32.909Z,102747.66
2022-12-17T20:59:03.272Z,102744.06
2022-12-17T21:01:35.338Z,102739.03
2022-12-17T21:04:04.096Z,102741.88
2022-12-17T21:06:36.736Z,102750.19
2022-12-17T21:09:05.445Z,102748.56
2022-12-17T21:11:34.731Z,102766.59
2022-12-17T21:14:04.909Z,102757.81
2022-12-17T21:16:34.747Z,102763.78
2022-12-17T21:19:03.852Z,102759.72
2022-12-17T21:21:34.288Z,102761.59
2022-12-17T21:24:02.294Z,102756.75
2022-12-17T21:26:31.843Z,102750.63
2022-12-17T21:29:00.945Z,102749.41
2022-12-17T21:31:30.258Z,102761.47
2022-12-17T21:34:01.507Z,102770.13
2022-12-17T21:36:31.453Z,102785.00
2022-12-17T21:39:00.320Z,102775.09
2022-12-17T21:41:31.962Z,102773.97
2022-12-17T21:44:02.012Z,102782.31
2022-12-17T21:46:30.915Z,102787.66
2022-12-17T21:49:01.973Z,102782.66
2022-12-17T21:51:30.851Z,102786.72
2022-12-17T21:54:01.676Z,102792.84
2022-12-17T21:56:30.853Z,102795.66
2022-12-17T21:59:00.068Z,102806.28
2022-12-17T22:01:29.793Z,102798.38
2022-12-17T22:04:00.754Z,102796.81
2022-12-17T22:06:37.484Z,102799.28
2022-12-17T22:09:13.285Z,102804.47
2022-12-17T22:11:45.814Z,102802.88
2022-12-17T22:14:20.408Z,102812.63
2022-12-17T22:16:50.122Z,102817.53
2022-12-17T22:19:22.605Z,102825.66
2022-12-17T22:21:58.100Z,102812.09
2022-12-17T22:24:26.001Z,102807.72
2022-12-17T22:26:59.869Z,102808.41
2022-12-17T22:29:45.845Z,102811.22
2022-12-17T22:32:31.304Z,102804.00
2022-12-17T22:35:50.826Z,102806.34
2022-12-17T22:39:33.073Z,102815.38
2022-12-17T22:44:30.853Z,102816.72
2022-12-17T22:44:45.552Z,102823.16
2022-12-17T22:46:22.053Z,102811.22
2022-12-17T22:48:49.863Z,102804.94
2022-12-17T22:51:26.421Z,102791.59
2022-12-17T22:53:56.535Z,102792.38
2022-12-17T22:56:43.822Z,102782.97
2022-12-17T22:59:17.274Z,102788.31
2022-12-17T23:01:45.004Z,102798.50
2022-12-17T23:04:13.756Z,102807.09
2022-12-17T23:06:45.130Z,102812.78
2022-12-17T23:09:13.418Z,102818.59
2022-12-17T23:11:41.406Z,102820.97
2022-12-17T23:14:09.701Z,102818.81
2022-12-17T23:16:39.208Z,102809.97
2022-12-17T23:19:07.807Z,102815.59
2022-12-17T23:21:36.050Z,102816.63
2022-12-17T23:24:05.959Z,102815.50
2022-12-17T23:26:36.195Z,102810.31
2022-12-17T23:29:07.061Z,102800.81
2022-12-17T23:31:37.641Z,102805.06
2022-12-17T23:34:05.853Z,102808.22
2022-12-17T23:36:33.989Z,102810.09
2022-12-17T23:39:01.939Z,102811.38
2022-12-17T23:41:32.324Z,102816.00
2022-12-17T23:44:00.557Z,102821.81
2022-12-17T23:46:30.618Z,102825.28
2022-12-17T23:48:58.791Z,102815.88
2022-12-17T23:51:28.083Z,102812.28
2022-12-17T23:53:55.960Z,102802.19
2022-12-17T23:56:26.076Z,102798.13
2022-12-17T23:58:56.852Z,102800.09
